^^
Datos históricos de la estación: Murcia-Puente Tocinos
Diario Informe para Septiembre 24, 2020 Unidades:  Ingés    Métrico   Ambas
Diario Semanal Mensual Anual
  Máxima: Mínima: Promedio:
Temperatura: 92.7 °F 73 °F 81.9 °F
Punto de rocio: 60.4 °F 50 °F 56.3 °F
Humedad: 58% 25% 43%
Velocidad viento: 15.9mph 0mph 5mph
Racha viento: 31.1mph - -
Viento- - SSO
Presión: 29.9 in 29.8 in -
Precipitación: 0 in    
 
 
Tabla de datos para Septiembre 24, 2020
Hora Temperatura Punto de rocio Presión Viento Velocidad viento Racha viento Humedad Intensidad lluvia(por hora) Nubes
00:04 77.4 °F 60.1 °F 29.9 in SSO 2.9 mph 5.9 mph 55.4% 0 in
00:09 77.5 °F 59.9 °F 29.9 in SSO 3.1 mph 6 mph 54.7% 0 in
00:14 77.7 °F 59.7 °F 29.9 in Sur 3.2 mph 6 mph 54% 0 in
00:19 77.9 °F 59.9 °F 29.9 in SSE 3.6 mph 5.9 mph 54% 0 in
00:24 77.7 °F 59.9 °F 29.9 in SSE 3.6 mph 6 mph 54.4% 0 in
00:29 77.5 °F 59.9 °F 29.9 in SSE 3.6 mph 6 mph 54.6% 0 in
00:34 77.5 °F 59.4 °F 29.9 in SSO 3.2 mph 4.6 mph 53.7% 0 in
00:39 77.5 °F 59.4 °F 29.9 in SO 1.4 mph 5 mph 53.4% 0 in
00:44 77.7 °F 58.8 °F 29.9 in SO 1.6 mph 5 mph 52.2% 0 in
00:49 77.9 °F 58.3 °F 29.9 in SSO 2.9 mph 5 mph 51.1% 0 in
00:54 78.1 °F 58.5 °F 29.9 in SSO 2.8 mph 5 mph 51% 0 in
00:59 78.1 °F 59.5 °F 29.9 in OSO 2 mph 4.3 mph 52.8% 0 in
01:04 77.9 °F 60.4 °F 29.9 in NE 2 mph 5 mph 55% 0 in
01:09 77 °F 59.7 °F 29.9 in Este 2 mph 5 mph 55.2% 0 in
01:14 76.3 °F 59.7 °F 29.9 in Este 2.1 mph 5 mph 56.5% 0 in
01:19 75.9 °F 59.5 °F 29.9 in Este 2.4 mph 3.6 mph 57% 0 in
01:24 75.7 °F 59.4 °F 29.9 in Este 2.3 mph 4 mph 56.9% 0 in
01:29 75.9 °F 59.4 °F 29.9 in Este 1.8 mph 3.6 mph 56.6% 0 in
01:34 75.9 °F 59.2 °F 29.9 in Este 1.7 mph 4 mph 56.2% 0 in
01:39 76.1 °F 59 °F 29.9 in Este 1.4 mph   55.4% 0 in
01:44 76.3 °F 58.8 °F 29.9 in Este 1.2 mph   54.9% 0 in
01:49 76.3 °F 58.3 °F 29.9 in Calm   2.4 mph 53.9% 0 in
01:54 76.5 °F 58.3 °F 29.9 in Calm   3.5 mph 53.3% 0 in
01:59 76.6 °F 58.3 °F 29.9 in Calm   4.7 mph 53.1% 0 in
02:04 77 °F 57.6 °F 29.9 in SSO 0.4 mph 5.2 mph 51.3% 0 in
02:09 77.4 °F 57.4 °F 29.9 in SSO 2.9 mph 5 mph 50.1% 0 in
02:14 77.5 °F 57.4 °F 29.9 in SSO 2.8 mph 5 mph 50% 0 in
02:19 77.7 °F 57.2 °F 29.9 in SSO 2.4 mph 5 mph 49.2% 0 in
02:22 77.7 °F 57.2 °F 29.9 in SSO 2.4 mph 4 mph 49.3% 0 in
02:34 77 °F 58.5 °F 29.9 in ESE 2 mph 4.6 mph 53% 0 in
02:39 76.6 °F 58.3 °F 29.9 in ESE 2 mph 5.2 mph 53% 0 in
02:44 76.3 °F 57.9 °F 29.9 in ESE 2.2 mph 5.4 mph 53% 0 in
02:49 75.9 °F 57.9 °F 29.9 in ESE 3.1 mph 6 mph 53.4% 0 in
02:54 75.9 °F 57.9 °F 29.9 in ESE 3.1 mph 5 mph 53.5% 0 in
02:59 75.7 °F 57.4 °F 29.9 in ESE 3.1 mph 5 mph 53% 0 in
03:04 75.9 °F 57.6 °F 29.9 in ESE 3 mph 5 mph 53% 0 in
03:09 75.9 °F 57.6 °F 29.9 in ESE 2.4 mph 5 mph 53% 0 in
03:14 75.9 °F 57.6 °F 29.9 in ESE 2.4 mph 5 mph 53% 0 in
03:19 75.9 °F 57.6 °F 29.9 in ESE 2.4 mph 5 mph 53% 0 in
03:24 76.1 °F 57.2 °F 29.9 in SE 2.4 mph 5.2 mph 52% 0 in
03:29 76.3 °F 57.2 °F 29.9 in SSE 2.4 mph 5 mph 51.6% 0 in
03:33 76.5 °F 57 °F 29.9 in Sur 2.4 mph 5 mph 51% 0 in
03:49 76.6 °F 57.2 °F 29.9 in SSO 2.4 mph 4.6 mph 51% 0 in
03:54 76.6 °F 57 °F 29.9 in SSO 2.4 mph 5 mph 50.8% 0 in
03:59 76.6 °F 56.7 °F 29.9 in SSO 2 mph 4.6 mph 50% 0 in
04:04 76.6 °F 56.7 °F 29.9 in SSO 2.1 mph 5 mph 50% 0 in
04:09 76.8 °F 56.3 °F 29.9 in SSO 2.9 mph 5 mph 49% 0 in
04:14 77 °F 56.3 °F 29.9 in Sur 2.9 mph 5 mph 49% 0 in
04:19 77 °F 56.5 °F 29.9 in Sur 3.1 mph 5 mph 49% 0 in
04:24 77 °F 56.5 °F 29.9 in Sur 3 mph 4 mph 49% 0 in
04:29 76.8 °F 56.3 °F 29.9 in Sur 2.4 mph 4 mph 49% 0 in
04:34 76.8 °F 56.1 °F 29.9 in Sur 2.3 mph 3 mph 49% 0 in
04:39 76.6 °F 56.1 °F 29.9 in Sur 1.8 mph 3.6 mph 49% 0 in
04:44 76.6 °F 56.3 °F 29.9 in Sur 1.7 mph 4 mph 49.4% 0 in
04:49 76.6 °F 56.7 °F 29.9 in Sur 1.4 mph 2.4 mph 50% 0 in
04:54 76.6 °F 56.5 °F 29.9 in Sur 1.4 mph 3.6 mph 50% 0 in
04:59 76.5 °F 56.3 °F 29.9 in SSE 1.8 mph 4.6 mph 50% 0 in
05:04 76.3 °F 56.3 °F 29.9 in SSO 2 mph 5.2 mph 50% 0 in
05:09 76.1 °F 56.5 °F 29.9 in Sur 3.1 mph 6.2 mph 50.9% 0 in
05:14 75.9 °F 56.5 °F 29.9 in Sur 3.2 mph 6 mph 51% 0 in
05:19 75.9 °F 56.5 °F 29.9 in Sur 3.6 mph 5 mph 51% 0 in
05:24 75.9 °F 56.5 °F 29.9 in Sur 3.4 mph 5 mph 51% 0 in
05:29 76.1 °F 56.7 °F 29.9 in Sur 2.4 mph 3.6 mph 51% 0 in
05:34 76.3 °F 56.8 °F 29.9 in Sur 2.4 mph 4.7 mph 51% 0 in
05:39 76.3 °F 56.8 °F 29.9 in Sur 2.4 mph 5 mph 51% 0 in
05:44 76.3 °F 56.8 °F 29.9 in SSE 2.5 mph 5.2 mph 51% 0 in
05:49 75.7 °F 56.8 °F 29.9 in SSE 3.6 mph 6.2 mph 52% 0 in
05:54 75.6 °F 56.7 °F 29.9 in Sur 3.7 mph 6.2 mph 52% 0 in
05:59 75.6 °F 56.7 °F 29.9 in Sur 4 mph 6 mph 51.8% 0 in
06:04 75.6 °F 56.1 °F 29.9 in SSO 4 mph 6.2 mph 51% 0 in
06:09 75.6 °F 56.1 °F 29.9 in SSO 4 mph 6 mph 51% 0 in
06:14 75.6 °F 56.5 °F 29.9 in SSO 4 mph 6.2 mph 51.6% 0 in
06:19 75.6 °F 56.7 °F 29.9 in SO 4 mph 6.9 mph 52% 0 in
06:24 75.6 °F 56.7 °F 29.9 in SO 4 mph 8.5 mph 52% 0 in
06:29 75.4 °F 56.5 °F 29.9 in SO 4.3 mph 9 mph 52% 0 in
06:34 75.4 °F 56.5 °F 29.9 in Sur 4.2 mph 6 mph 52% 0 in
06:39 75.4 °F 56.5 °F 29.9 in Sur 3.6 mph 5 mph 51.9% 0 in
06:44 75.4 °F 56.5 °F 29.9 in SSE 3.6 mph 5 mph 52% 0 in
06:49 75.2 °F 56.5 °F 29.9 in SSE 3.6 mph 5.9 mph 52% 0 in
06:54 75 °F 56.1 °F 29.9 in Sur 3.6 mph 6 mph 52% 0 in
06:59 74.8 °F 56.5 °F 29.9 in SSO 3.6 mph 5 mph 52.6% 0 in
07:04 74.8 °F 56.5 °F 29.9 in SSO 3.4 mph 4.6 mph 52.8% 0 in
07:09 74.7 °F 56.5 °F 29.9 in Sur 2 mph 5.2 mph 53% 0 in
07:14 74.7 °F 56.3 °F 29.9 in SSE 2.1 mph 5.2 mph 53% 0 in
07:19 74.5 °F 56.1 °F 29.9 in Sur 3.1 mph 5.9 mph 53% 0 in
07:24 74.5 °F 56.1 °F 29.9 in Sur 3.2 mph 5.9 mph 53% 0 in
07:29 74.5 °F 56.3 °F 29.9 in SSO 4 mph 6 mph 53.2% 0 in
07:34 74.5 °F 56.7 °F 29.9 in SSO 3.9 mph 6 mph 54% 0 in
07:39 74.3 °F 56.7 °F 29.9 in SSO 3.1 mph 6 mph 54% 0 in
07:44 74.1 °F 56.5 °F 29.9 in SSO 3.1 mph 4.6 mph 54% 0 in
07:49 74.1 °F 56.5 °F 29.9 in SSO 3.1 mph 5 mph 54% 0 in
07:54 74.1 °F 56.5 °F 29.9 in SSO 3 mph 5 mph 54% 0 in
07:59 74.1 °F 56.5 °F 29.9 in SSO 2.4 mph 5.2 mph 54% 0 in
08:04 74.1 °F 56.5 °F 29.9 in SO 2.5 mph 5 mph 54% 0 in
08:09 74.3 °F 56.5 °F 29.9 in SO 2.9 mph 5 mph 54% 0 in
08:14 74.3 °F 56.7 °F 29.9 in SO 2.9 mph 5 mph 54.3% 0 in
08:19 74.1 °F 56.8 °F 29.9 in SO 2.9 mph 5 mph 54.7% 0 in
08:24 74.1 °F 56.8 °F 29.9 in SSO 2.9 mph 5.8 mph 55% 0 in
08:29 74.1 °F 57 °F 29.9 in SE 2.9 mph 6 mph 55.3% 0 in
08:34 74.1 °F 57.6 °F 29.9 in SE 3 mph 6.9 mph 56.3% 0 in
08:39 73.6 °F 57.7 °F 29.9 in SSE 3.6 mph 7 mph 57.7% 0 in
08:44 73.2 °F 57.6 °F 29.9 in SSE 3.6 mph 6.9 mph 58% 0 in
08:49 73 °F 57.4 °F 29.9 in SSE 3.6 mph 8.5 mph 58% 0 in
08:54 73 °F 57.4 °F 29.9 in SSE 3.8 mph 9 mph 58% 0 in
08:59 73.2 °F 57.4 °F 29.9 in Sur 5.2 mph 7 mph 57.7% 0 in
09:04 73.6 °F 57.4 °F 29.9 in SO 5 mph 7 mph 57.1% 0 in
09:09 73.8 °F 57.2 °F 29.9 in SO 4.3 mph 7 mph 56.1% 0 in
09:14 73.9 °F 57.4 °F 29.9 in OSO 4.2 mph 6 mph 56% 0 in
09:19 74.3 °F 57.2 °F 29.9 in OSO 3.1 mph 5.9 mph 55.1% 0 in
09:24 74.7 °F 57.2 °F 29.9 in SSO 3.1 mph 6 mph 54.8% 0 in
09:29 74.8 °F 57 °F 29.9 in Sur 3.1 mph 7.4 mph 54% 0 in
09:34 75 °F 57 °F 29.9 in Sur 3.2 mph 7 mph 53.8% 0 in
09:39 75.2 °F 57.4 °F 29.9 in Sur 4 mph 6 mph 53.7% 0 in
09:44 75.6 °F 57.2 °F 29.9 in OSO 3.8 mph 5 mph 53% 0 in
09:49 75.6 °F 57 °F 29.9 in Oeste 2.4 mph 4 mph 52.4% 0 in
09:54 75.9 °F 57.4 °F 29.9 in OSO 2.3 mph 3.6 mph 52.6% 0 in
09:59 76.3 °F 57.7 °F 29.9 in SO 1.8 mph 4.3 mph 52.9% 0 in
10:04 76.5 °F 57.6 °F 29.9 in SSO 1.9 mph 5 mph 52% 0 in
10:09 76.6 °F 57.6 °F 29.9 in SO 2.9 mph 5.8 mph 52% 0 in
10:14 76.8 °F 57.7 °F 29.9 in SSO 3 mph 6 mph 51.9% 0 in
10:19 77 °F 57.7 °F 29.9 in SO 3.6 mph 5.2 mph 51.4% 0 in
10:24 77.2 °F 57.7 °F 29.9 in OSO 3.4 mph 5 mph 51% 0 in
10:29 77.4 °F 57.7 °F 29.9 in OSO 2.4 mph 5 mph 51% 0 in
10:34 77.5 °F 58.1 °F 29.9 in SSE 2.4 mph 4.6 mph 51% 0 in
10:39 77.7 °F 58.6 °F 29.9 in ESE 2.4 mph 5.8 mph 51.9% 0 in
10:44 77.7 °F 59.7 °F 29.9 in SE 2.5 mph 6 mph 54% 0 in
10:49 77.7 °F 59.2 °F 29.9 in SE 3.6 mph 6 mph 53% 0 in
10:54 77.5 °F 58.5 °F 29.9 in SE 3.5 mph 5 mph 51.8% 0 in
10:59 77.5 °F 58.1 °F 29.9 in SO 2.9 mph 5 mph 51.1% 0 in
11:04 77.7 °F 58.3 °F 29.9 in Sur 2.8 mph 5 mph 51.2% 0 in
11:09 78.3 °F 58.3 °F 29.9 in Sur 2.4 mph 5.8 mph 50.4% 0 in
11:14 78.4 °F 57.9 °F 29.9 in Sur 2.5 mph 6 mph 49.3% 0 in
11:19 79 °F 57.6 °F 29.9 in SSE 3.6 mph 6 mph 48% 0 in
11:24 79.5 °F 58.1 °F 29.9 in Sur 3.6 mph 6.9 mph 47.9% 0 in
11:29 79.9 °F 57.7 °F 29.9 in SSO 3.6 mph 7 mph 47% 0 in
11:34 79.9 °F 57.7 °F 29.9 in Oeste 3.6 mph 6.2 mph 47% 0 in
11:39 79.9 °F 57.7 °F 29.9 in Oeste 3.6 mph 8.1 mph 47% 0 in
11:44 79.7 °F 57.6 °F 29.9 in OSO 3.7 mph 8.1 mph 47% 0 in
11:49 79.5 °F 57.6 °F 29.9 in Oeste 4.3 mph 7 mph 47% 0 in
11:54 79.3 °F 57.6 °F 29.9 in OSO 4.2 mph 6 mph 47.2% 0 in
11:59 79.3 °F 57.6 °F 29.9 in OSO 3.6 mph 6 mph 47.1% 0 in
12:04 79.7 °F 58.1 °F 29.9 in SSO 3.5 mph 6.4 mph 47.9% 0 in
12:09 80.1 °F 57.9 °F 29.9 in Sur 3.1 mph 7 mph 47.1% 0 in
12:14 80.2 °F 57.9 °F 29.9 in Sur 3.2 mph 7.4 mph 46.3% 0 in
12:19 80.8 °F 58.1 °F 29.9 in SE 3.6 mph 7 mph 46% 0 in
12:24 81.1 °F 57.7 °F 29.9 in ONO 3.4 mph 5 mph 45% 0 in
12:29 81.7 °F 57.9 °F 29.9 in ONO 2 mph 5 mph 44.7% 0 in
12:34 81.7 °F 57.7 °F 29.9 in ONO 2.1 mph 5.9 mph 44.1% 0 in
12:39 81.7 °F 58.1 °F 29.9 in NO 2.9 mph 6 mph 44.8% 0 in
12:44 82 °F 58.3 °F 29.9 in Oeste 2.9 mph 5.9 mph 44.4% 0 in
12:49 82.4 °F 57.7 °F 29.9 in Oeste 2.4 mph 6 mph 43% 0 in
12:54 82.6 °F 57.4 °F 29.9 in SSO 2.5 mph 6.9 mph 42.4% 0 in
12:59 82.8 °F 57.4 °F 29.9 in SO 3.6 mph 7 mph 42.2% 0 in
13:04 82.9 °F 57.7 °F 29.9 in OSO 3.7 mph 9.2 mph 42.5% 0 in
13:09 82.9 °F 57.6 °F 29.9 in SSO 4 mph 9 mph 42% 0 in
13:14 83.1 °F 57.7 °F 29.9 in OSO 4 mph 7 mph 42% 0 in
13:19 83.7 °F 57.4 °F 29.9 in OSO 4 mph 6.2 mph 41.1% 0 in
13:24 84 °F 57 °F 29.9 in SSO 4 mph 8.7 mph 40% 0 in
13:29 84.7 °F 57.4 °F 29.9 in Sur 3.6 mph 10 mph 39.6% 0 in
13:34 84.9 °F 57.4 °F 29.9 in SSO 3.7 mph 10 mph 39% 0 in
13:39 85.3 °F 57.6 °F 29.9 in SO 4.7 mph 8 mph 39% 0 in
13:44 85.6 °F 57.4 °F 29.9 in SSO 4.6 mph 7.4 mph 38.2% 0 in
13:49 86.2 °F 57.6 °F 29.9 in SSO 4 mph 7.4 mph 38% 0 in
13:54 86.5 °F 57.4 °F 29.9 in SE 4 mph 8 mph 37.2% 0 in
13:59 86.9 °F 57.6 °F 29.9 in OSO 4 mph 9.2 mph 37% 0 in
14:04 87.1 °F 57.6 °F 29.9 in SSO 4 mph 9 mph 36.8% 0 in
14:09 87.1 °F 56.8 °F 29.9 in OSO 4.3 mph 9.2 mph 36% 0 in
14:14 87.3 °F 57 °F 29.9 in OSO 4.3 mph 9 mph 36% 0 in
14:19 87.4 °F 57.6 °F 29.9 in ONO 4.3 mph 6 mph 36.4% 0 in
14:24 88 °F 57.6 °F 29.9 in Oeste 4.2 mph 8.1 mph 36% 0 in
14:29 88.2 °F 57.2 °F 29.9 in NO 3.1 mph 8 mph 35.2% 0 in
14:34 88.3 °F 57.2 °F 29.9 in Oeste 3.3 mph 7.4 mph 35% 0 in
14:39 88.5 °F 57 °F 29.9 in OSO 4.3 mph 8.5 mph 34.6% 0 in
14:44 88.3 °F 56.5 °F 29.9 in Oeste 4.3 mph 9 mph 34.1% 0 in
14:49 88.5 °F 57 °F 29.9 in OSO 4.3 mph 8 mph 34.7% 0 in
14:54 89.1 °F 56.8 °F 29.9 in OSO 4 mph 5 mph 33.8% 0 in
14:59 89.6 °F 56.7 °F 29.9 in NO 2.4 mph 5.9 mph 33% 0 in
15:04 90 °F 56.8 °F 29.9 in NO 2.4 mph 6 mph 33% 0 in
15:09 90.1 °F 56.8 °F 29.9 in NO 2 mph 6.2 mph 32.7% 0 in
15:14 90.1 °F 56.8 °F 29.9 in NNO 2.2 mph 8.1 mph 32.7% 0 in
15:19 90.3 °F 56.8 °F 29.9 in NNE 3.1 mph 8 mph 32.5% 0 in
15:24 90.7 °F 56.7 °F 29.9 in NE 2.7 mph 4.7 mph 32% 0 in
15:29 90.7 °F 55.9 °F 29.9 in ONO 2 mph 6.9 mph 31.1% 0 in
15:34 90.5 °F 56.1 °F 29.9 in ENE 2.2 mph 7 mph 31.4% 0 in
15:39 90.9 °F 56.1 °F 29.9 in SSO 3.6 mph 5.9 mph 31.1% 0 in
15:44 91.2 °F 56.5 °F 29.9 in ONO 3.7 mph 12.7 mph 31.1% 0 in
15:49 91.2 °F 56.5 °F 29.9 in Oeste 4 mph 13 mph 31% 0 in
15:54 91.6 °F 56.7 °F 29.9 in Oeste 4 mph 9 mph 31% 0 in
15:59 91.8 °F 56.8 °F 29.9 in SO 4 mph 8.5 mph 31% 0 in
16:04 91.8 °F 56.5 °F 29.9 in Oeste 4.2 mph 10.4 mph 30.7% 0 in
16:09 91.6 °F 56.7 °F 29.9 in Oeste 5.2 mph 10 mph 31% 0 in
16:14 91.8 °F 56.8 °F 29.9 in NO 4.9 mph 7 mph 31.1% 0 in
16:19 91.9 °F 57 °F 29.9 in ONO 3.1 mph 8.1 mph 31% 0 in
16:24 91.9 °F 56.8 °F 29.9 in SO 3.2 mph 8.1 mph 30.8% 0 in
16:29 92.1 °F 56.7 °F 29.8 in SO 4 mph 10.4 mph 30.5% 0 in
16:34 92.7 °F 56.7 °F 29.8 in SO 4 mph 10 mph 30% 0 in
16:39 92.7 °F 56.5 °F 29.8 in SO 3.6 mph 10.4 mph 29.9% 0 in
16:44 92.5 °F 56.5 °F 29.8 in SSO 3.7 mph 10 mph 30% 0 in
16:49 92.1 °F 56.3 °F 29.8 in SSO 5.3 mph 10 mph 30% 0 in
16:54 92.1 °F 56.5 °F 29.8 in SSO 5.2 mph 9 mph 30.3% 0 in
16:59 91.9 °F 57 °F 29.8 in Sur 4 mph 8 mph 30.9% 0 in
17:04 91.9 °F 56.8 °F 29.8 in SSO 4 mph 7 mph 31% 0 in
17:09 91.8 °F 56.8 °F 29.8 in SO 4 mph 9.2 mph 31% 0 in
17:14 91.6 °F 56.5 °F 29.8 in SO 4.1 mph 9.2 mph 30.7% 0 in
17:19 91.4 °F 56.5 °F 29.8 in Oeste 4.7 mph 8 mph 31% 0 in
17:24 91.2 °F 56.5 °F 29.8 in ONO 4.5 mph 7 mph 31% 0 in
17:29 91.2 °F 56.5 °F 29.8 in ONO 3.6 mph 9.2 mph 31.1% 0 in
17:34 91 °F 56.3 °F 29.8 in Oeste 3.9 mph 10.4 mph 31.1% 0 in
17:39 90.9 °F 56.7 °F 29.8 in ONO 5.4 mph 10 mph 31.7% 0 in
17:44 90.7 °F 56.7 °F 29.8 in ONO 5.3 mph 8.1 mph 31.8% 0 in
17:49 90.5 °F 56.7 °F 29.8 in Oeste 4.7 mph 8 mph 32% 0 in
17:54 90.3 °F 56.5 °F 29.8 in OSO 4.7 mph 7 mph 32% 0 in
17:59 90.3 °F 55.6 °F 29.8 in Oeste 4.3 mph 11.8 mph 31% 0 in
18:04 90.3 °F 55.6 °F 29.8 in OSO 4.5 mph 12 mph 31% 0 in
18:09 90.3 °F 55 °F 29.8 in SO 5.4 mph 16.3 mph 30.3% 0 in
18:14 90.7 °F 54 °F 29.8 in SO 5.7 mph 19 mph 28.9% 0 in
18:19 90.9 °F 53.6 °F 29.8 in SSO 8.1 mph 19 mph 28.4% 0 in
18:24 90.7 °F 51.6 °F 29.8 in SO 8.6 mph 27.6 mph 26.5% 0 in
18:29 90.7 °F 51.1 °F 29.8 in SO 12.5 mph 31.1 mph 26% 0 in
18:34 90.7 °F 51.1 °F 29.8 in SO 12.9 mph 31 mph 26% 0 in
18:39 90.7 °F 51.1 °F 29.8 in SO 15.6 mph 28 mph 26% 0 in
18:44 90.7 °F 50 °F 29.8 in SO 15.3 mph 26.8 mph 25.1% 0 in
18:49 90.7 °F 50.5 °F 29.8 in SO 13.7 mph 28.4 mph 25.5% 0 in
18:54 90.7 °F 51.1 °F 29.8 in SO 13.7 mph 29 mph 26% 0 in
18:59 90.7 °F 51.1 °F 29.8 in SO 14 mph 29 mph 26% 0 in
19:04 90.7 °F 50.4 °F 29.8 in SO 14 mph 31.1 mph 25.4% 0 in
19:09 90.7 °F 50 °F 29.8 in SO 14 mph 31 mph 25% 0 in
19:14 90.5 °F 50.4 °F 29.8 in SO 14.3 mph 28 mph 25.4% 0 in
19:19 90.3 °F 50.9 °F 29.8 in SO 15.9 mph 28 mph 26% 0 in
19:24 90.1 °F 50.7 °F 29.8 in SO 15.6 mph 27.3 mph 26% 0 in
19:29 90.1 °F 50.5 °F 29.8 in SO 13.7 mph 29.9 mph 26% 0 in
19:34 90 °F 50.7 °F 29.8 in SO 13.9 mph 27.6 mph 26.3% 0 in
19:39 89.8 °F 51.3 °F 29.9 in SO 14.7 mph 28 mph 26.9% 0 in
19:44 89.8 °F 51.3 °F 29.9 in OSO 14.7 mph 28 mph 27% 0 in
19:49 89.4 °F 51.1 °F 29.9 in SO 14.5 mph 23.5 mph 27% 0 in
19:54 89.4 °F 51.1 °F 29.9 in SO 14.2 mph 23 mph 27% 0 in
19:59 89.2 °F 50.9 °F 29.9 in OSO 12.5 mph 20.8 mph 27% 0 in
20:04 89.2 °F 50.9 °F 29.9 in OSO 12.2 mph 21 mph 27% 0 in
20:09 89.1 °F 51.4 °F 29.9 in OSO 10.7 mph 21 mph 27.7% 0 in
20:14 88.9 °F 51.6 °F 29.9 in OSO 10.4 mph 21 mph 28% 0 in
20:19 88.7 °F 51.4 °F 29.9 in OSO 8.5 mph 16 mph 28% 0 in
20:24 88.5 °F 51.3 °F 29.9 in OSO 8.7 mph 18.4 mph 28% 0 in
20:29 88.5 °F 51.4 °F 29.9 in Oeste 9.7 mph 18 mph 28.1% 0 in
20:34 88.2 °F 52.2 °F 29.9 in ONO 9.6 mph 18.5 mph 29.3% 0 in
20:39 87.6 °F 52.3 °F 29.9 in Oeste 9.2 mph 19 mph 30% 0 in
20:44 87.3 °F 52.9 °F 29.9 in Oeste 9.2 mph 16.1 mph 30.8% 0 in
20:49 87.1 °F 52.7 °F 29.9 in Oeste 9.2 mph 16 mph 31% 0 in
20:54 86.7 °F 53.1 °F 29.9 in Oeste 9.1 mph 16.3 mph 31.6% 0 in
20:59 86.5 °F 53.2 °F 29.9 in Oeste 8.5 mph 16 mph 32% 0 in
21:04 86.4 °F 53.6 °F 29.9 in Oeste 8.6 mph 15 mph 32.7% 0 in
21:09 86.2 °F 53.6 °F 29.9 in Oeste 9.7 mph 15 mph 33% 0 in
21:14 85.8 °F 53.6 °F 29.9 in Oeste 9.6 mph 15.6 mph 33.2% 0 in
21:19 85.6 °F 54 °F 29.9 in Oeste 9.2 mph 16.1 mph 34% 0 in
21:24 85.5 °F 54 °F 29.9 in Oeste 9.3 mph 17.3 mph 34% 0 in
21:29 85.5 °F 54 °F 29.9 in Oeste 9.7 mph 17.3 mph 34.1% 0 in
21:34 85.1 °F 54.3 °F 29.9 in Oeste 9.5 mph 17 mph 35% 0 in
21:39 84.7 °F 54.3 °F 29.9 in Oeste 8.5 mph 18.4 mph 35.1% 0 in
21:44 84.7 °F 54.7 °F 29.9 in ONO 8.6 mph 18 mph 36% 0 in
21:49 84.6 °F 54.7 °F 29.9 in Oeste 9.7 mph 15.2 mph 36% 0 in
21:54 84.4 °F 54.5 °F 29.9 in Oeste 9.8 mph 15.6 mph 36% 0 in
21:59 84.4 °F 54.9 °F 29.9 in Oeste 10 mph 17.3 mph 36.4% 0 in
22:04 84.2 °F 55 °F 29.9 in Oeste 10 mph 17 mph 37% 0 in
22:09 84 °F 54.9 °F 29.9 in Oeste 10.2 mph 20.7 mph 37% 0 in
22:14 83.8 °F 55 °F 29.9 in Oeste 10.3 mph 21 mph 37.2% 0 in
22:19 83.7 °F 55.4 °F 29.9 in Oeste 11.2 mph 20 mph 38% 0 in
22:24 83.7 °F 55.4 °F 29.9 in Oeste 11.1 mph 17.3 mph 38% 0 in
22:29 83.7 °F 55.4 °F 29.9 in Oeste 9.7 mph 17 mph 38% 0 in
22:34 83.5 °F 55.2 °F 29.9 in Oeste 9.6 mph 19 mph 38% 0 in
22:39 83.5 °F 55.2 °F 29.9 in Oeste 9.2 mph 19 mph 38% 0 in
22:44 83.5 °F 55.2 °F 29.9 in Oeste 9.6 mph 20.1 mph 38% 0 in
22:49 83.5 °F 55.2 °F 29.9 in Oeste 11.8 mph 21 mph 38% 0 in
22:54 83.5 °F 55.2 °F 29.9 in Oeste 11.9 mph 20.7 mph 38% 0 in
22:59 83.5 °F 55.2 °F 29.9 in Oeste 12.3 mph 21 mph 38% 0 in
23:04 83.3 °F 55 °F 29.9 in Oeste 12.1 mph 19 mph 38% 0 in
23:09 83.1 °F 54.9 °F 29.9 in Oeste 10.7 mph 19 mph 38% 0 in
23:14 82.9 °F 54.9 °F 29.9 in OSO 10.5 mph 18 mph 38% 0 in
23:19 82.9 °F 54.7 °F 29.9 in OSO 9.2 mph 17 mph 38% 0 in
23:24 82.9 °F 54.7 °F 29.9 in OSO 9.1 mph 15 mph 38% 0 in
23:29 82.9 °F 54.7 °F 29.9 in OSO 8.5 mph 13 mph 38% 0 in
23:34 82.8 °F 54.7 °F 29.9 in OSO 8.3 mph 12.7 mph 38% 0 in
Murcia-Puente Tocinos, España
Compliments of Weather Underground - 2.75 mb

La estación de MeteoMurcia.com, publica sus datos en los siguientes proyectos:

Weather Underground PWS IMURCIAP2 Meteoclimatic www.awekas.at

W3Counter
Web Analytics